createdAt,value
2016-12-11T00:00:04.445Z,0
2016-12-11T00:05:04.918Z,0
2016-12-11T00:10:04.783Z,0
2016-12-11T00:15:04.679Z,0
2016-12-11T00:20:04.430Z,0
2016-12-11T00:25:04.305Z,0
2016-12-11T00:30:04.476Z,0
2016-12-11T00:35:03.983Z,0
2016-12-11T00:40:04.484Z,0
2016-12-11T00:45:04.359Z,0
2016-12-11T00:50:04.752Z,0
2016-12-11T00:55:04.706Z,0
2016-12-11T01:00:04.447Z,0
2016-12-11T01:05:04.829Z,0
2016-12-11T01:10:04.846Z,0
2016-12-11T01:15:04.873Z,0
2016-12-11T01:20:04.498Z,0
2016-12-11T01:25:04.178Z,0
2016-12-11T01:30:05.013Z,0
2016-12-11T01:35:04.458Z,0
2016-12-11T01:40:04.329Z,0
2016-12-11T01:45:04.201Z,0
2016-12-11T01:50:04.573Z,0
2016-12-11T01:55:04.405Z,0
2016-12-11T02:00:04.706Z,0
2016-12-11T02:05:04.407Z,0
2016-12-11T02:10:04.913Z,0
2016-12-11T02:15:05.080Z,0
2016-12-11T02:20:04.893Z,0
2016-12-11T02:25:04.254Z,0
2016-12-11T02:30:04.437Z,0
2016-12-11T02:35:04.602Z,0
2016-12-11T02:40:04.252Z,0
2016-12-11T02:45:04.797Z,0
2016-12-11T02:50:04.205Z,0
2016-12-11T02:55:04.217Z,0
2016-12-11T03:00:05.495Z,0
2016-12-11T03:05:08.298Z,0
2016-12-11T03:10:04.560Z,0
2016-12-11T03:15:04.385Z,0
2016-12-11T03:20:04.206Z,0
2016-12-11T03:25:04.875Z,0
2016-12-11T03:30:04.713Z,0
2016-12-11T03:35:04.289Z,0
2016-12-11T03:40:04.967Z,0
2016-12-11T03:45:04.958Z,0
2016-12-11T03:50:04.659Z,0
2016-12-11T03:55:04.501Z,0
2016-12-11T04:00:04.894Z,0
2016-12-11T04:05:05.898Z,0
2016-12-11T04:10:04.382Z,0
2016-12-11T04:15:04.374Z,0
2016-12-11T04:20:04.205Z,0
2016-12-11T04:25:04.469Z,0
2016-12-11T04:30:04.848Z,0
2016-12-11T04:35:04.308Z,0
2016-12-11T04:40:03.986Z,0
2016-12-11T04:45:04.567Z,0
2016-12-11T04:50:04.850Z,0
2016-12-11T04:55:04.841Z,0
2016-12-11T05:00:04.408Z,0
2016-12-11T05:05:04.839Z,0
2016-12-11T05:10:05.053Z,0
2016-12-11T05:15:04.172Z,0
2016-12-11T05:20:05.031Z,0
2016-12-11T05:25:04.540Z,0
2016-12-11T05:30:04.157Z,0
2016-12-11T05:35:04.311Z,0
2016-12-11T05:40:04.687Z,0
2016-12-11T05:45:03.933Z,0
2016-12-11T05:50:04.697Z,0
2016-12-11T05:55:04.177Z,0
2016-12-11T06:00:04.140Z,0
2016-12-11T06:05:04.037Z,0
2016-12-11T06:10:04.850Z,0
2016-12-11T06:15:04.861Z,0
2016-12-11T06:20:04.928Z,0
2016-12-11T06:25:04.821Z,0
2016-12-11T06:30:04.662Z,0
2016-12-11T06:35:05.077Z,0
2016-12-11T06:40:04.981Z,0
2016-12-11T06:45:04.909Z,0
2016-12-11T06:50:04.338Z,0
2016-12-11T06:55:04.390Z,1
2016-12-11T07:00:04.524Z,2
2016-12-11T07:05:04.264Z,3
2016-12-11T07:10:04.625Z,8
2016-12-11T07:15:04.727Z,20
2016-12-11T07:20:04.420Z,39
2016-12-11T07:25:04.999Z,55
2016-12-11T07:30:05.121Z,94
2016-12-11T07:35:04.449Z,151
2016-12-11T07:40:05.123Z,282
2016-12-11T07:45:04.504Z,406
2016-12-11T07:50:04.966Z,456
2016-12-11T07:55:04.191Z,474
2016-12-11T08:00:04.360Z,601
2016-12-11T08:05:04.850Z,721
2016-12-11T08:10:05.042Z,746
2016-12-11T08:15:04.116Z,540
2016-12-11T08:20:04.172Z,461
2016-12-11T08:25:04.437Z,448
2016-12-11T08:30:05.152Z,527
2016-12-11T08:35:04.497Z,582
2016-12-11T08:40:04.502Z,627
2016-12-11T08:45:04.875Z,894
2016-12-11T08:50:04.347Z,1000
2016-12-11T08:55:04.646Z,1000
2016-12-11T09:00:04.530Z,2000
2016-12-11T09:05:04.019Z,2000
2016-12-11T09:10:04.721Z,2000
2016-12-11T09:15:04.777Z,2000
2016-12-11T09:20:03.987Z,2000
2016-12-11T09:25:04.279Z,2000
2016-12-11T09:30:04.354Z,2000
2016-12-11T09:35:04.650Z,2000
2016-12-11T09:40:04.979Z,1000
2016-12-11T09:45:04.861Z,1000
2016-12-11T09:50:04.824Z,1000
2016-12-11T09:55:04.362Z,2000
2016-12-11T10:00:04.693Z,3000
2016-12-11T10:05:04.481Z,4000
2016-12-11T10:10:04.742Z,3000
2016-12-11T10:15:04.061Z,2000
2016-12-11T10:20:04.225Z,2000
2016-12-11T10:25:04.297Z,4000
2016-12-11T10:30:04.228Z,3000
2016-12-11T10:35:04.917Z,1000
2016-12-11T10:40:04.443Z,1000
2016-12-11T10:45:04.791Z,2000
2016-12-11T10:50:04.642Z,2000
2016-12-11T10:55:04.464Z,3000
2016-12-11T11:00:04.807Z,1000
2016-12-11T11:05:04.763Z,2000
2016-12-11T11:10:04.526Z,2000
2016-12-11T11:15:04.326Z,2000
2016-12-11T11:20:04.415Z,3000
2016-12-11T11:25:04.970Z,4000
2016-12-11T11:30:04.130Z,4000
2016-12-11T11:35:04.587Z,4000
2016-12-11T11:40:04.226Z,5000
2016-12-11T11:45:04.145Z,5000
2016-12-11T11:50:04.156Z,5000
2016-12-11T11:55:04.555Z,4000
2016-12-11T12:00:04.744Z,5000
2016-12-11T12:05:04.774Z,5000
2016-12-11T12:10:04.985Z,3000
2016-12-11T12:15:04.733Z,3000
2016-12-11T12:20:04.629Z,2000
2016-12-11T12:25:05.076Z,1000
2016-12-11T12:30:04.907Z,1000
2016-12-11T12:35:04.596Z,3000
2016-12-11T12:40:04.602Z,3000
2016-12-11T12:45:04.378Z,3000
2016-12-11T12:50:05.128Z,3000
2016-12-11T12:55:04.765Z,2000
2016-12-11T13:00:04.943Z,2000
2016-12-11T13:05:04.262Z,1000
2016-12-11T13:10:04.822Z,848
2016-12-11T13:15:04.919Z,876
2016-12-11T13:20:05.019Z,1000
2016-12-11T13:25:05.031Z,3000
2016-12-11T13:30:04.106Z,3000
2016-12-11T13:35:04.431Z,4000
2016-12-11T13:40:04.417Z,4000
2016-12-11T13:45:04.716Z,5000
2016-12-11T13:50:04.435Z,3000
2016-12-11T13:55:04.479Z,3000
2016-12-11T14:00:04.169Z,4000
2016-12-11T14:05:04.831Z,3000
2016-12-11T14:10:04.536Z,2000
2016-12-11T14:15:04.469Z,1000
2016-12-11T14:20:04.449Z,1000
2016-12-11T14:45:04.083Z,1000
2016-12-11T14:50:04.703Z,1000
2016-12-11T14:55:04.528Z,1000
2016-12-11T15:00:04.446Z,1000
2016-12-11T15:05:04.119Z,360
2016-12-11T15:10:04.363Z,188
2016-12-11T15:15:04.152Z,188
2016-12-11T15:20:04.595Z,60
2016-12-11T15:25:04.757Z,55
2016-12-11T15:30:04.543Z,53
2016-12-11T15:35:04.382Z,48
2016-12-11T15:40:04.302Z,36
2016-12-11T15:45:04.964Z,18
2016-12-11T15:50:04.316Z,8
2016-12-11T15:55:05.075Z,4
2016-12-11T16:00:04.156Z,2
2016-12-11T16:05:04.785Z,1
2016-12-11T16:10:04.498Z,0
2016-12-11T16:15:04.394Z,0
2016-12-11T16:20:04.184Z,0
2016-12-11T16:25:04.729Z,0
2016-12-11T16:30:04.451Z,0
2016-12-11T16:35:04.213Z,0
2016-12-11T16:40:04.802Z,0
2016-12-11T16:45:04.188Z,0
2016-12-11T16:50:04.557Z,0
2016-12-11T16:55:04.319Z,0
2016-12-11T17:00:04.840Z,0
2016-12-11T17:05:04.573Z,0
2016-12-11T17:10:04.550Z,0
2016-12-11T17:15:04.034Z,0
2016-12-11T17:20:04.538Z,0
2016-12-11T17:25:04.267Z,0
2016-12-11T17:30:04.723Z,0
2016-12-11T17:35:04.416Z,0
2016-12-11T17:40:05.132Z,0
2016-12-11T17:45:04.458Z,0
2016-12-11T17:50:04.990Z,0
2016-12-11T17:55:04.407Z,0
2016-12-11T18:00:04.779Z,0
2016-12-11T18:05:04.595Z,0
2016-12-11T18:10:04.305Z,0
2016-12-11T18:15:04.584Z,0
2016-12-11T18:20:04.718Z,0
2016-12-11T18:25:04.520Z,0
2016-12-11T18:30:04.838Z,0
2016-12-11T18:35:04.167Z,0
2016-12-11T18:40:04.740Z,0
2016-12-11T18:45:04.493Z,0
2016-12-11T18:50:04.793Z,0
2016-12-11T18:55:04.989Z,0
2016-12-11T19:00:04.905Z,0
2016-12-11T19:05:04.864Z,0
2016-12-11T19:10:04.086Z,0
2016-12-11T19:15:05.054Z,0
2016-12-11T19:20:04.218Z,0
2016-12-11T19:25:04.656Z,0
2016-12-11T19:30:04.675Z,0
2016-12-11T19:35:04.476Z,0
2016-12-11T19:40:04.303Z,0
2016-12-11T19:45:04.984Z,0
2016-12-11T19:50:04.536Z,0
2016-12-11T19:55:04.771Z,0
2016-12-11T20:00:04.970Z,0
2016-12-11T20:05:04.954Z,0
2016-12-11T20:10:03.997Z,0
2016-12-11T20:15:04.824Z,0
2016-12-11T20:20:04.071Z,0
2016-12-11T20:25:04.615Z,0
2016-12-11T20:30:04.582Z,0
2016-12-11T20:35:04.189Z,0
2016-12-11T20:40:04.287Z,0
2016-12-11T20:45:04.840Z,0
2016-12-11T20:50:04.573Z,0
2016-12-11T20:55:04.756Z,0
2016-12-11T21:00:04.665Z,0
2016-12-11T21:05:04.415Z,0
2016-12-11T21:10:04.381Z,0
2016-12-11T21:15:04.065Z,0
2016-12-11T21:20:04.834Z,0
2016-12-11T21:25:04.598Z,0
2016-12-11T21:30:04.346Z,0
2016-12-11T21:35:04.638Z,0
2016-12-11T21:40:04.822Z,0
2016-12-11T21:45:04.615Z,0
2016-12-11T21:50:04.970Z,0
2016-12-11T21:55:04.574Z,0
2016-12-11T22:00:04.223Z,0
2016-12-11T22:05:04.856Z,0
2016-12-11T22:10:04.131Z,0
2016-12-11T22:15:04.156Z,0
2016-12-11T22:20:04.197Z,0
2016-12-11T22:25:04.870Z,0
2016-12-11T22:30:04.676Z,0
2016-12-11T22:35:04.543Z,0
2016-12-11T22:40:04.720Z,0
2016-12-11T22:45:04.258Z,0
2016-12-11T22:50:04.888Z,0
2016-12-11T22:55:04.911Z,0
2016-12-11T23:00:04.759Z,0
2016-12-11T23:05:04.118Z,0
2016-12-11T23:10:04.959Z,0
2016-12-11T23:15:04.888Z,0
2016-12-11T23:20:04.664Z,0
2016-12-11T23:25:04.279Z,0
2016-12-11T23:30:04.116Z,0
2016-12-11T23:35:05.058Z,0
2016-12-11T23:40:04.365Z,0
2016-12-11T23:45:04.398Z,0
2016-12-11T23:50:04.281Z,0
2016-12-11T23:55:04.097Z,0
